Time;durP1;ratioP1;P1;durP2;ratioP2;P2;SDS_P1;SDS_P2;PMS_P1;PMS_P2;Temp;Humidity;BMP_temperature;BMP_pressure;BME280_temperature;BME280_humidity;BME280_pressure;Samples;Min_cycle;Max_cycle;Signal;HPM_P1;HPM_P2
2021/05/26 00:02:14;;;;;;;39.00;35.90;;;;;;;;;;4994776;28;20443;-81
2021/05/26 00:04:41;;;;;;;47.43;43.13;;;;;;;;;;4994707;28;20452;-81
2021/05/26 00:07:08;;;;;;;47.97;44.00;;;;;;;;;;4977482;28;20452;-81
2021/05/26 00:09:35;;;;;;;46.13;42.03;;;;;;;;;;4994985;28;20445;-81
2021/05/26 00:12:03;;;;;;;53.70;48.90;;;;;;;;;;4994456;28;20448;-81
2021/05/26 00:14:30;;;;;;;47.40;43.30;;;;;;;;;;4994529;28;20546;-81
2021/05/26 00:16:58;;;;;;;53.90;48.85;;;;;;;;;;4994759;28;20423;-81
2021/05/26 00:19:25;;;;;;;56.13;50.80;;;;;;;;;;4978010;28;20202;-81
2021/05/26 00:21:52;;;;;;;49.10;45.00;;;;;;;;;;4977648;28;20453;-81
2021/05/26 00:24:19;;;;;;;52.17;46.90;;;;;;;;;;4994646;28;20445;-81
2021/05/26 00:26:45;;;;;;;50.30;45.37;;;;;;;;;;4977481;28;20188;-81
2021/05/26 00:29:13;;;;;;;48.10;43.80;;;;;;;;;;4994598;28;20448;-80
2021/05/26 00:31:40;;;;;;;46.33;42.43;;;;;;;;;;4994707;28;20430;-81
2021/05/26 00:34:07;;;;;;;49.07;44.50;;;;;;;;;;4994015;28;20483;-81
2021/05/26 00:36:34;;;;;;;47.90;43.00;;;;;;;;;;4994145;28;20452;-81
2021/05/26 00:39:01;;;;;;;43.77;40.03;;;;;;;;;;4994445;28;20448;-81
2021/05/26 00:41:28;;;;;;;42.23;38.63;;;;;;;;;;4994190;28;20440;-80
2021/05/26 00:43:55;;;;;;;42.00;38.00;;;;;;;;;;4994083;28;20956;-80
2021/05/26 00:46:23;;;;;;;44.67;40.60;;;;;;;;;;4994142;28;20423;-81
2021/05/26 00:48:51;;;;;;;44.28;40.13;;;;;;;;;;4994023;28;20461;-80
2021/05/26 00:51:17;;;;;;;44.83;40.53;;;;;;;;;;4976977;28;20197;-81
2021/05/26 00:53:45;;;;;;;43.90;40.07;;;;;;;;;;4976798;28;20466;-81
2021/05/26 00:56:12;;;;;;;42.67;38.83;;;;;;;;;;4993997;28;20419;-81
2021/05/26 00:58:40;;;;;;;42.17;38.53;;;;;;;;;;4976852;28;20451;-81
2021/05/26 01:01:07;;;;;;;42.43;38.87;;;;;;;;;;4993939;28;20407;-80
2021/05/26 01:03:35;;;;;;;39.80;36.17;;;;;;;;;;4994116;28;20441;-81
2021/05/26 01:06:02;;;;;;;41.33;36.90;;;;;;;;;;4997001;28;20436;-81
2021/05/26 01:08:29;;;;;;;38.93;35.67;;;;;;;;;;4998143;28;20485;-81
2021/05/26 01:10:56;;;;;;;40.97;37.40;;;;;;;;;;4997832;28;20516;-81
2021/05/26 01:13:25;;;;;;;39.20;35.80;;;;;;;;;;4998341;28;20416;-81
2021/05/26 01:15:52;;;;;;;36.60;33.80;;;;;;;;;;4965368;28;20462;-81
2021/05/26 01:18:24;;;;;;;37.17;33.93;;;;;;;;;;4999484;28;20441;-81
2021/05/26 01:20:52;;;;;;;36.70;33.40;;;;;;;;;;4998661;28;20472;-81
2021/05/26 01:23:20;;;;;;;38.73;35.27;;;;;;;;;;4997493;28;20440;-80
2021/05/26 01:25:47;;;;;;;36.57;33.47;;;;;;;;;;4997607;28;20440;-81
2021/05/26 01:28:14;;;;;;;35.90;32.90;;;;;;;;;;4997847;28;20447;-80
2021/05/26 01:30:41;;;;;;;36.53;33.20;;;;;;;;;;4997783;28;20217;-81
2021/05/26 01:33:08;;;;;;;31.90;29.33;;;;;;;;;;4997604;28;20215;-81
2021/05/26 01:35:35;;;;;;;33.40;30.25;;;;;;;;;;4997621;28;20224;-81
2021/05/26 01:38:02;;;;;;;28.73;26.60;;;;;;;;;;4980327;28;20209;-81
2021/05/26 01:40:30;;;;;;;34.55;31.27;;;;;;;;;;4997667;28;20820;-80
2021/05/26 01:42:57;;;;;;;31.70;29.02;;;;;;;;;;4997549;28;20197;-81
2021/05/26 01:45:24;;;;;;;33.08;30.13;;;;;;;;;;4980440;28;20210;-80
2021/05/26 01:47:51;;;;;;;32.53;30.10;;;;;;;;;;4997254;28;20265;-81
2021/05/26 01:50:21;;;;;;;30.20;27.95;;;;;;;;;;4997468;28;20447;-81
2021/05/26 01:52:50;;;;;;;32.88;29.88;;;;;;;;;;4997330;28;20523;-80
2021/05/26 01:55:17;;;;;;;30.40;27.60;;;;;;;;;;4997297;28;20248;-81
2021/05/26 01:57:45;;;;;;;27.13;25.27;;;;;;;;;;4997364;28;20475;-81
2021/05/26 02:00:13;;;;;;;31.03;28.50;;;;;;;;;;4997026;28;20193;-80
2021/05/26 02:02:40;;;;;;;28.53;26.00;;;;;;;;;;4997029;28;20789;-81
2021/05/26 02:05:08;;;;;;;29.60;27.07;;;;;;;;;;4997588;28;20431;-80
2021/05/26 02:07:35;;;;;;;30.27;27.87;;;;;;;;;;4979665;28;20426;-81
2021/05/26 02:10:02;;;;;;;29.27;26.70;;;;;;;;;;4996738;28;20447;-81
2021/05/26 02:12:32;;;;;;;28.00;26.00;;;;;;;;;;4996766;28;20479;-80
2021/05/26 02:15:02;;;;;;;29.53;27.33;;;;;;;;;;4996660;28;20545;-80
2021/05/26 02:17:30;;;;;;;30.33;27.87;;;;;;;;;;4996656;28;20453;-80
2021/05/26 02:19:58;;;;;;;29.73;27.43;;;;;;;;;;4997742;28;20440;-81
2021/05/26 02:22:25;;;;;;;28.10;25.40;;;;;;;;;;4996601;28;20535;-81
2021/05/26 02:24:52;;;;;;;29.60;27.50;;;;;;;;;;4996701;28;20427;-81
2021/05/26 02:27:19;;;;;;;28.20;25.90;;;;;;;;;;4996353;28;20810;-80
2021/05/26 02:29:46;;;;;;;26.58;24.75;;;;;;;;;;4996475;28;20440;-81
2021/05/26 02:32:13;;;;;;;26.00;24.10;;;;;;;;;;4996540;28;20197;-81
2021/05/26 02:34:40;;;;;;;25.53;23.73;;;;;;;;;;4996629;28;20470;-80
2021/05/26 02:37:08;;;;;;;24.37;22.43;;;;;;;;;;4996308;28;20452;-81
2021/05/26 02:39:35;;;;;;;26.30;24.13;;;;;;;;;;4996655;28;20440;-81
2021/05/26 02:42:01;;;;;;;25.37;23.30;;;;;;;;;;4996256;28;20445;-81
2021/05/26 02:44:28;;;;;;;27.50;25.10;;;;;;;;;;4996509;28;20473;-80
2021/05/26 02:46:55;;;;;;;24.70;22.90;;;;;;;;;;4996480;28;20437;-81
2021/05/26 02:49:23;;;;;;;25.10;23.30;;;;;;;;;;4995972;28;20847;-81
2021/05/26 02:51:50;;;;;;;23.00;21.60;;;;;;;;;;4995988;28;20926;-80
2021/05/26 02:54:17;;;;;;;23.43;21.73;;;;;;;;;;4996280;28;20487;-81
2021/05/26 02:56:44;;;;;;;24.53;22.40;;;;;;;;;;4978835;28;20951;-80
2021/05/26 02:59:10;;;;;;;23.47;21.57;;;;;;;;;;4996161;28;20450;-81
2021/05/26 03:01:37;;;;;;;23.27;21.87;;;;;;;;;;4962678;28;20427;-80
2021/05/26 03:04:04;;;;;;;19.23;18.13;;;;;;;;;;4995973;28;20434;-81
2021/05/26 03:06:32;;;;;;;23.63;21.83;;;;;;;;;;4995738;28;20459;-81
2021/05/26 03:09:00;;;;;;;22.23;20.70;;;;;;;;;;4995667;28;20423;-81
2021/05/26 03:11:27;;;;;;;22.83;21.33;;;;;;;;;;4995964;28;20280;-81
2021/05/26 03:13:54;;;;;;;23.37;21.47;;;;;;;;;;4978616;28;20437;-81
2021/05/26 03:16:21;;;;;;;22.00;20.60;;;;;;;;;;4995538;28;20994;-81
2021/05/26 03:18:49;;;;;;;24.73;22.93;;;;;;;;;;4995756;28;20451;-81
2021/05/26 03:21:16;;;;;;;23.67;21.70;;;;;;;;;;4995794;28;20408;-81
2021/05/26 03:23:44;;;;;;;23.57;21.87;;;;;;;;;;4995809;28;20194;-81
2021/05/26 03:26:11;;;;;;;21.00;19.60;;;;;;;;;;4995649;28;20443;-81
2021/05/26 03:28:38;;;;;;;23.70;22.07;;;;;;;;;;4994688;28;20593;-81
2021/05/26 03:31:05;;;;;;;25.83;23.47;;;;;;;;;;4995603;28;20503;-81
2021/05/26 03:33:31;;;;;;;23.37;21.83;;;;;;;;;;4995336;28;20845;-80
2021/05/26 03:35:58;;;;;;;24.77;22.63;;;;;;;;;;4995529;28;20488;-80
2021/05/26 03:38:25;;;;;;;23.63;22.03;;;;;;;;;;4995412;28;20507;-81
2021/05/26 03:40:53;;;;;;;24.13;22.37;;;;;;;;;;4995455;28;20427;-81
2021/05/26 03:43:20;;;;;;;24.30;22.43;;;;;;;;;;4995057;28;20449;-80
2021/05/26 03:45:47;;;;;;;22.97;21.07;;;;;;;;;;4977916;28;20452;-80
2021/05/26 03:48:14;;;;;;;23.90;21.83;;;;;;;;;;4994824;28;20958;-79
2021/05/26 03:50:41;;;;;;;23.53;21.93;;;;;;;;;;4995150;28;20451;-79
2021/05/26 03:53:08;;;;;;;24.77;22.47;;;;;;;;;;4977756;28;20460;-79
2021/05/26 03:55:35;;;;;;;22.42;20.83;;;;;;;;;;4995051;28;20539;-80
2021/05/26 03:58:03;;;;;;;23.83;22.00;;;;;;;;;;4994728;28;20229;-80
2021/05/26 04:00:30;;;;;;;23.53;21.37;;;;;;;;;;4995090;28;20198;-79
2021/05/26 04:02:57;;;;;;;24.47;22.33;;;;;;;;;;4977711;28;20423;-79
2021/05/26 04:05:24;;;;;;;25.33;23.30;;;;;;;;;;4994368;28;20543;-79
2021/05/26 04:07:51;;;;;;;22.90;21.40;;;;;;;;;;4994683;28;20479;-78
2021/05/26 04:10:17;;;;;;;22.50;20.88;;;;;;;;;;4994597;28;20659;-80
2021/05/26 04:12:44;;;;;;;24.75;22.85;;;;;;;;;;4994452;28;20243;-79
2021/05/26 04:15:14;;;;;;;23.50;21.60;;;;;;;;;;4994697;28;20272;-79
2021/05/26 04:17:41;;;;;;;24.50;22.50;;;;;;;;;;4994783;28;20231;-78
2021/05/26 04:20:09;;;;;;;23.43;21.60;;;;;;;;;;4994681;28;20415;-79
2021/05/26 04:22:37;;;;;;;23.90;22.10;;;;;;;;;;4977716;28;20445;-78
2021/05/26 04:25:05;;;;;;;24.90;22.90;;;;;;;;;;4994399;28;20444;-79
2021/05/26 04:27:31;;;;;;;23.27;21.75;;;;;;;;;;4994870;28;20440;-79
2021/05/26 04:29:59;;;;;;;23.77;22.17;;;;;;;;;;4994634;28;20200;-79
2021/05/26 04:32:27;;;;;;;27.30;23.80;;;;;;;;;;4994356;28;20494;-79
2021/05/26 04:34:54;;;;;;;22.47;20.90;;;;;;;;;;4994134;28;20459;-79
2021/05/26 04:37:21;;;;;;;23.43;21.80;;;;;;;;;;4977040;28;20510;-79
2021/05/26 04:39:48;;;;;;;24.67;22.70;;;;;;;;;;4993348;28;20939;-79
2021/05/26 04:42:15;;;;;;;23.87;22.20;;;;;;;;;;4994313;28;20478;-79
2021/05/26 04:44:42;;;;;;;25.10;23.10;;;;;;;;;;4994629;28;20506;-79
2021/05/26 04:47:09;;;;;;;23.93;22.27;;;;;;;;;;4977198;28;20431;-79
2021/05/26 04:49:36;;;;;;;24.40;22.40;;;;;;;;;;4993868;28;20537;-78
2021/05/26 04:52:03;;;;;;;26.27;24.00;;;;;;;;;;4994131;28;20464;-79
2021/05/26 04:54:31;;;;;;;25.17;23.03;;;;;;;;;;4993769;28;20978;-79
2021/05/26 04:56:58;;;;;;;25.83;23.63;;;;;;;;;;4993938;28;20917;-78
2021/05/26 04:59:24;;;;;;;25.47;23.50;;;;;;;;;;4994296;28;20447;-79
2021/05/26 05:01:51;;;;;;;25.97;24.07;;;;;;;;;;4993974;28;20419;-79
2021/05/26 05:04:18;;;;;;;27.43;24.83;;;;;;;;;;4993662;28;20431;-79
2021/05/26 05:06:46;;;;;;;25.87;23.50;;;;;;;;;;4994232;28;20439;-79
2021/05/26 05:09:13;;;;;;;25.60;23.73;;;;;;;;;;4976686;28;20513;-79
2021/05/26 05:11:40;;;;;;;25.00;23.10;;;;;;;;;;4993851;28;20445;-79
2021/05/26 05:14:07;;;;;;;27.00;24.63;;;;;;;;;;4993629;28;20453;-79
2021/05/26 05:16:34;;;;;;;47.60;24.53;;;;;;;;;;4993600;28;20861;-78
2021/05/26 05:19:01;;;;;;;26.42;24.20;;;;;;;;;;4994139;28;20434;-79
2021/05/26 05:21:28;;;;;;;26.30;24.17;;;;;;;;;;4994064;28;20198;-79
2021/05/26 05:23:56;;;;;;;24.80;22.83;;;;;;;;;;4994168;28;20520;-79
2021/05/26 05:26:23;;;;;;;26.70;24.10;;;;;;;;;;4993752;28;20499;-79
2021/05/26 05:28:50;;;;;;;25.30;23.40;;;;;;;;;;4993862;28;20794;-79
2021/05/26 05:31:16;;;;;;;27.53;24.80;;;;;;;;;;4993582;28;20412;-78
2021/05/26 05:33:43;;;;;;;26.77;24.40;;;;;;;;;;4993907;28;20415;-79
2021/05/26 05:36:10;;;;;;;27.23;24.63;;;;;;;;;;4993862;28;20492;-79
2021/05/26 05:38:37;;;;;;;27.60;25.17;;;;;;;;;;4993621;28;20416;-79
2021/05/26 05:41:05;;;;;;;25.90;23.73;;;;;;;;;;4993974;28;20536;-79
2021/05/26 05:43:32;;;;;;;32.07;26.50;;;;;;;;;;4993869;28;20790;-79
2021/05/26 05:46:00;;;;;;;28.63;25.63;;;;;;;;;;4993567;28;20942;-78
2021/05/26 05:48:27;;;;;;;27.07;24.50;;;;;;;;;;4993531;28;20527;-78
2021/05/26 05:50:54;;;;;;;27.97;25.57;;;;;;;;;;4994980;28;20418;-78
2021/05/26 05:53:21;;;;;;;30.20;27.80;;;;;;;;;;4997550;28;20440;-78
2021/05/26 05:55:48;;;;;;;29.73;26.53;;;;;;;;;;4997342;28;20849;-78
2021/05/26 05:58:23;;;;;;;30.00;27.00;;;;;;;;;;4997296;28;20443;-78
2021/05/26 06:00:50;;;;;;;30.40;27.90;;;;;;;;;;4979711;28;20811;-78
2021/05/26 06:03:17;;;;;;;29.70;26.97;;;;;;;;;;4979751;28;20408;-78
2021/05/26 06:05:44;;;;;;;28.93;26.30;;;;;;;;;;4979789;28;20451;-78
2021/05/26 06:08:11;;;;;;;29.17;26.70;;;;;;;;;;4996816;28;20994;-78
2021/05/26 06:10:38;;;;;;;27.77;25.37;;;;;;;;;;4997138;28;20411;-78
2021/05/26 06:13:08;;;;;;;28.23;25.73;;;;;;;;;;4997168;28;20422;-79
2021/05/26 06:15:36;;;;;;;28.47;25.93;;;;;;;;;;4996727;28;20488;-78
2021/05/26 06:18:03;;;;;;;26.70;24.40;;;;;;;;;;4997056;28;20893;-78
2021/05/26 06:20:30;;;;;;;28.20;25.73;;;;;;;;;;4997600;28;20435;-77
2021/05/26 06:22:57;;;;;;;26.93;24.80;;;;;;;;;;4996547;28;20495;-77
2021/05/26 06:25:24;;;;;;;28.63;25.80;;;;;;;;;;4996500;28;20426;-78
2021/05/26 06:27:51;;;;;;;29.13;26.53;;;;;;;;;;4979589;28;20427;-77
2021/05/26 06:30:18;;;;;;;27.90;25.63;;;;;;;;;;4996747;28;20419;-82
2021/05/26 06:32:46;;;;;;;29.10;26.50;;;;;;;;;;4996223;28;20784;-77
2021/05/26 06:35:13;;;;;;;27.17;25.00;;;;;;;;;;4996623;28;20481;-76
2021/05/26 06:37:41;;;;;;;27.70;25.47;;;;;;;;;;4996335;28;20502;-78
2021/05/26 06:40:08;;;;;;;27.50;25.40;;;;;;;;;;4996055;28;20435;-77
2021/05/26 06:42:35;;;;;;;28.80;26.60;;;;;;;;;;4996003;28;20507;-77
2021/05/26 06:45:02;;;;;;;28.37;25.63;;;;;;;;;;4996460;28;20411;-77
2021/05/26 06:47:29;;;;;;;30.20;27.50;;;;;;;;;;4995875;28;20503;-77
2021/05/26 06:49:56;;;;;;;28.80;26.27;;;;;;;;;;4996092;28;20423;-77
2021/05/26 06:52:23;;;;;;;29.53;27.17;;;;;;;;;;4996073;28;20427;-78
2021/05/26 06:54:50;;;;;;;31.57;28.73;;;;;;;;;;4995638;28;20891;-78
2021/05/26 06:57:18;;;;;;;30.27;27.77;;;;;;;;;;4978542;28;20962;-79
2021/05/26 06:59:45;;;;;;;29.47;27.03;;;;;;;;;;4996161;28;20427;-79
2021/05/26 07:02:12;;;;;;;29.47;27.10;;;;;;;;;;4995195;28;20890;-82
2021/05/26 07:04:39;;;;;;;29.97;27.70;;;;;;;;;;4995905;28;20423;-80
2021/05/26 07:07:06;;;;;;;27.20;24.70;;;;;;;;;;4996190;28;20442;-79
2021/05/26 07:09:33;;;;;;;27.90;25.17;;;;;;;;;;4995743;28;20504;-79
2021/05/26 07:12:00;;;;;;;30.07;27.67;;;;;;;;;;4995850;28;20441;-80
2021/05/26 07:14:27;;;;;;;28.63;26.43;;;;;;;;;;4995550;28;20415;-79
2021/05/26 07:16:54;;;;;;;30.43;28.03;;;;;;;;;;4995876;28;20444;-79
2021/05/26 07:19:21;;;;;;;30.30;27.70;;;;;;;;;;4995805;28;20429;-80
2021/05/26 07:21:47;;;;;;;27.47;25.10;;;;;;;;;;4995367;28;20452;-79
2021/05/26 07:24:15;;;;;;;25.37;23.67;;;;;;;;;;4978599;28;20791;-80
2021/05/26 07:26:42;;;;;;;27.07;25.00;;;;;;;;;;4995681;28;20451;-79
2021/05/26 07:29:09;;;;;;;23.77;22.17;;;;;;;;;;4995372;28;20508;-79
2021/05/26 07:31:37;;;;;;;23.60;22.07;;;;;;;;;;4995288;28;20448;-79
2021/05/26 07:34:04;;;;;;;25.80;23.77;;;;;;;;;;4994879;28;20514;-79
2021/05/26 07:36:31;;;;;;;27.50;25.33;;;;;;;;;;4994986;28;20822;-80
2021/05/26 07:38:59;;;;;;;27.93;26.10;;;;;;;;;;4995606;28;20445;-79
2021/05/26 07:41:26;;;;;;;24.63;22.93;;;;;;;;;;4995046;28;20415;-79
2021/05/26 07:43:53;;;;;;;27.90;25.70;;;;;;;;;;4995325;28;20423;-80
2021/05/26 07:46:20;;;;;;;24.73;23.23;;;;;;;;;;4995468;28;20432;-80
2021/05/26 07:48:48;;;;;;;24.77;22.93;;;;;;;;;;4994836;28;20961;-80
2021/05/26 07:51:17;;;;;;;25.30;23.40;;;;;;;;;;4995315;28;20504;-80
2021/05/26 07:53:44;;;;;;;24.93;22.77;;;;;;;;;;4994987;28;20444;-79
2021/05/26 07:56:11;;;;;;;24.13;22.53;;;;;;;;;;4995213;28;20487;-79
2021/05/26 07:58:39;;;;;;;21.80;20.40;;;;;;;;;;4995076;28;20476;-80
2021/05/26 08:01:07;;;;;;;22.43;20.77;;;;;;;;;;4994994;28;20412;-79
2021/05/26 08:03:33;;;;;;;22.70;20.53;;;;;;;;;;4994904;28;20419;-81
2021/05/26 08:06:00;;;;;;;21.80;19.90;;;;;;;;;;4994827;28;20419;-80
2021/05/26 08:08:28;;;;;;;20.77;19.37;;;;;;;;;;4995000;28;20615;-80
2021/05/26 08:10:55;;;;;;;20.53;19.07;;;;;;;;;;4994936;28;20498;-82
2021/05/26 08:13:22;;;;;;;20.70;19.30;;;;;;;;;;4977129;28;20424;-79
2021/05/26 08:15:50;;;;;;;20.23;19.03;;;;;;;;;;4994445;28;20484;-81
2021/05/26 08:18:20;;;;;;;22.10;20.50;;;;;;;;;;4994439;28;20423;-79
2021/05/26 08:20:48;;;;;;;19.33;18.23;;;;;;;;;;4994769;28;20500;-78
2021/05/26 08:23:15;;;;;;;21.53;20.23;;;;;;;;;;4994377;28;20426;-79
2021/05/26 08:25:42;;;;;;;22.27;20.93;;;;;;;;;;4994768;28;20420;-78
2021/05/26 08:28:08;;;;;;;22.93;21.10;;;;;;;;;;4994544;28;20420;-79
2021/05/26 08:30:36;;;;;;;22.00;20.70;;;;;;;;;;4994588;28;20465;-79
2021/05/26 08:33:04;;;;;;;21.30;20.03;;;;;;;;;;4994164;28;20449;-79
2021/05/26 08:35:31;;;;;;;22.80;21.40;;;;;;;;;;4994461;28;20451;-79
2021/05/26 08:37:57;;;;;;;22.77;21.10;;;;;;;;;;4994216;28;20504;-79
2021/05/26 08:40:24;;;;;;;23.30;21.80;;;;;;;;;;4994205;28;20427;-79
2021/05/26 08:42:52;;;;;;;21.20;20.00;;;;;;;;;;4994096;28;20920;-79
2021/05/26 08:45:18;;;;;;;22.80;21.33;;;;;;;;;;4994364;28;20474;-79
2021/05/26 08:47:46;;;;;;;22.53;20.93;;;;;;;;;;4994237;28;20891;-81
2021/05/26 08:50:14;;;;;;;21.33;20.13;;;;;;;;;;4994075;28;20484;-80
2021/05/26 08:52:41;;;;;;;24.13;22.57;;;;;;;;;;4994367;28;20437;-79
2021/05/26 08:55:11;;;;;;;21.87;20.30;;;;;;;;;;4994242;28;20468;-78
2021/05/26 08:57:42;;;;;;;21.87;20.47;;;;;;;;;;4993651;28;20568;-78
2021/05/26 09:00:11;;;;;;;21.47;20.17;;;;;;;;;;4994354;28;20438;-79
2021/05/26 09:02:38;;;;;;;22.77;21.50;;;;;;;;;;4994236;28;20419;-78
2021/05/26 09:05:05;;;;;;;21.53;20.10;;;;;;;;;;4993967;28;20443;-78
2021/05/26 09:07:33;;;;;;;21.50;20.40;;;;;;;;;;4994228;28;20412;-78
2021/05/26 09:10:01;;;;;;;21.10;19.90;;;;;;;;;;4993895;28;20452;-78
2021/05/26 09:12:32;;;;;;;20.03;18.93;;;;;;;;;;4993913;28;20404;-78
2021/05/26 09:15:04;;;;;;;21.17;20.07;;;;;;;;;;4993799;28;20484;-78
2021/05/26 09:17:34;;;;;;;21.07;19.80;;;;;;;;;;4994217;28;20442;-91
2021/05/26 09:20:15;;;;;;;20.23;19.03;;;;;;;;;;4993287;28;20438;-79
2021/05/26 09:22:58;;;;;;;21.40;20.20;;;;;;;;;;4984071;28;20452;-82
2021/05/26 09:25:25;;;;;;;20.13;19.03;;;;;;;;;;5014181;28;20414;-81
2021/05/26 09:28:12;;;;;;;21.23;20.00;;;;;;;;;;5017422;28;20473;-83
2021/05/26 09:30:39;;;;;;;20.30;19.10;;;;;;;;;;5017164;28;20427;-82
2021/05/26 09:33:22;;;;;;;20.90;19.60;;;;;;;;;;5017028;28;20416;-81
2021/05/26 09:35:49;;;;;;;20.07;18.97;;;;;;;;;;5017137;28;20488;-82
2021/05/26 09:38:17;;;;;;;20.03;18.97;;;;;;;;;;4999603;28;20448;-87
2021/05/26 09:40:44;;;;;;;20.80;19.50;;;;;;;;;;5017868;28;20407;-87
2021/05/26 09:43:11;;;;;;;20.93;19.20;;;;;;;;;;5017605;28;20407;-84
2021/05/26 09:45:38;;;;;;;20.70;19.50;;;;;;;;;;5016944;28;20469;-82
2021/05/26 09:48:06;;;;;;;20.90;19.60;;;;;;;;;;5017040;28;20459;-82
2021/05/26 09:50:34;;;;;;;21.20;19.70;;;;;;;;;;5017091;28;20424;-83
2021/05/26 09:53:02;;;;;;;20.90;19.60;;;;;;;;;;5017172;28;20422;-83
2021/05/26 09:55:31;;;;;;;21.57;19.70;;;;;;;;;;5016775;28;21037;-83
2021/05/26 09:57:58;;;;;;;20.77;19.40;;;;;;;;;;4999301;28;20495;-83
2021/05/26 10:00:26;;;;;;;21.53;20.03;;;;;;;;;;5016711;28;20494;-83
2021/05/26 10:02:53;;;;;;;20.77;19.57;;;;;;;;;;5016399;28;20452;-80
2021/05/26 10:05:20;;;;;;;22.17;20.87;;;;;;;;;;5016859;28;20437;-84
2021/05/26 10:07:52;;;;;;;21.93;20.60;;;;;;;;;;5017075;28;20416;-86
2021/05/26 10:10:20;;;;;;;21.87;20.47;;;;;;;;;;5016750;28;20442;-85
2021/05/26 10:12:53;;;;;;;22.17;20.93;;;;;;;;;;5018018;28;20412;-86
2021/05/26 10:15:20;;;;;;;22.20;20.73;;;;;;;;;;5017668;28;20462;-85
2021/05/26 10:17:50;;;;;;;21.30;20.10;;;;;;;;;;5016598;28;20456;-87
2021/05/26 10:20:17;;;;;;;21.57;20.37;;;;;;;;;;5016703;28;20469;-86
2021/05/26 10:22:45;;;;;;;21.30;19.93;;;;;;;;;;5016794;28;20439;-86
2021/05/26 10:25:12;;;;;;;21.30;20.10;;;;;;;;;;5017289;28;20430;-86
2021/05/26 10:27:44;;;;;;;22.93;21.23;;;;;;;;;;5016770;28;20426;-86
2021/05/26 10:30:13;;;;;;;22.40;21.20;;;;;;;;;;5017133;28;20412;-85
2021/05/26 10:32:50;;;;;;;21.30;20.10;;;;;;;;;;5017679;28;20778;-87
2021/05/26 10:35:17;;;;;;;21.07;19.87;;;;;;;;;;5016630;28;20476;-88
2021/05/26 10:37:45;;;;;;;22.23;20.83;;;;;;;;;;5015416;28;20411;-85
2021/05/26 10:40:30;;;;;;;22.40;21.00;;;;;;;;;;5015982;28;20542;-86
2021/05/26 10:42:58;;;;;;;22.90;21.70;;;;;;;;;;5002022;28;20808;-85
2021/05/26 10:45:36;;;;;;;22.80;21.50;;;;;;;;;;5016611;28;20827;-87
2021/05/26 10:48:03;;;;;;;22.00;20.80;;;;;;;;;;5015783;28;20496;-87
2021/05/26 10:50:45;;;;;;;22.30;20.80;;;;;;;;;;4999467;28;20930;-86
2021/05/26 10:53:14;;;;;;;22.93;21.40;;;;;;;;;;4999734;28;20444;-86
2021/05/26 10:55:43;;;;;;;23.40;21.70;;;;;;;;;;5016872;28;20528;-87
2021/05/26 10:58:17;;;;;;;23.07;21.77;;;;;;;;;;5016069;28;20540;-86
2021/05/26 11:00:46;;;;;;;21.63;20.33;;;;;;;;;;5015501;28;20415;-81
2021/05/26 11:03:40;;;;;;;21.53;19.87;;;;;;;;;;5015410;28;20455;-81
2021/05/26 11:06:37;;;;;;;22.73;21.27;;;;;;;;;;5015943;28;20411;-87
2021/05/26 11:09:06;;;;;;;23.40;22.10;;;;;;;;;;5015438;28;20472;-81
2021/05/26 11:11:52;;;;;;;22.60;21.30;;;;;;;;;;5015342;28;20862;-81
2021/05/26 11:14:29;;;;;;;22.00;20.77;;;;;;;;;;5015618;28;20418;-80
2021/05/26 11:17:15;;;;;;;23.17;21.60;;;;;;;;;;5015096;28;20465;-80
2021/05/26 11:19:45;;;;;;;23.30;21.67;;;;;;;;;;5015363;28;20491;-80
2021/05/26 11:22:14;;;;;;;23.83;22.00;;;;;;;;;;5014961;28;20457;-81
2021/05/26 11:24:41;;;;;;;22.93;21.53;;;;;;;;;;5015045;28;20420;-80
2021/05/26 11:27:15;;;;;;;22.07;20.63;;;;;;;;;;4997710;28;20426;-81
2021/05/26 11:29:41;;;;;;;23.40;21.80;;;;;;;;;;4996830;28;20408;-82
2021/05/26 11:32:09;;;;;;;22.87;21.33;;;;;;;;;;5015139;28;20444;-81
2021/05/26 11:34:36;;;;;;;22.77;21.37;;;;;;;;;;5014764;28;20905;-82
2021/05/26 11:37:04;;;;;;;22.10;20.80;;;;;;;;;;5014892;28;20437;-81
2021/05/26 11:39:32;;;;;;;23.40;21.80;;;;;;;;;;5015016;28;20800;-82
2021/05/26 11:42:09;;;;;;;22.47;21.17;;;;;;;;;;4997349;28;20515;-81
2021/05/26 11:44:37;;;;;;;21.87;20.57;;;;;;;;;;5015245;28;20436;-82
2021/05/26 11:47:04;;;;;;;21.47;20.17;;;;;;;;;;5014538;28;20805;-82
2021/05/26 11:49:32;;;;;;;21.77;20.53;;;;;;;;;;5014064;28;20459;-81
2021/05/26 11:52:02;;;;;;;23.17;21.87;;;;;;;;;;5014921;28;20403;-82
2021/05/26 11:54:30;;;;;;;22.83;21.50;;;;;;;;;;5014419;28;20427;-82
2021/05/26 11:57:03;;;;;;;22.50;21.30;;;;;;;;;;4997010;28;21035;-82
2021/05/26 11:59:29;;;;;;;22.80;21.50;;;;;;;;;;5014323;28;20420;-81
2021/05/26 12:01:58;;;;;;;23.80;22.40;;;;;;;;;;5014139;28;20436;-81
2021/05/26 12:04:25;;;;;;;23.83;22.33;;;;;;;;;;5014623;28;20817;-82
2021/05/26 12:06:54;;;;;;;22.30;21.00;;;;;;;;;;5014199;28;20785;-82
2021/05/26 12:09:28;;;;;;;23.40;22.00;;;;;;;;;;5014284;28;20907;-81
2021/05/26 12:11:56;;;;;;;22.43;21.03;;;;;;;;;;5014123;28;20920;-81
2021/05/26 12:14:27;;;;;;;22.73;21.37;;;;;;;;;;5014111;28;20510;-82
2021/05/26 12:16:54;;;;;;;22.83;21.43;;;;;;;;;;5013787;28;20535;-81
2021/05/26 12:19:27;;;;;;;22.30;21.03;;;;;;;;;;4997078;28;20441;-81
2021/05/26 12:22:07;;;;;;;21.80;20.60;;;;;;;;;;5014479;28;20762;-81
2021/05/26 12:24:48;;;;;;;23.90;22.40;;;;;;;;;;5014315;28;20419;-81
2021/05/26 12:27:30;;;;;;;23.07;21.67;;;;;;;;;;5014210;28;20448;-81
2021/05/26 12:29:57;;;;;;;23.70;22.00;;;;;;;;;;5014305;28;20557;-80
2021/05/26 12:32:27;;;;;;;22.90;21.60;;;;;;;;;;5014004;28;20414;-81
2021/05/26 12:34:58;;;;;;;23.03;21.60;;;;;;;;;;5014187;28;20469;-81
2021/05/26 12:37:38;;;;;;;23.90;22.30;;;;;;;;;;5013815;28;20438;-86
2021/05/26 12:40:06;;;;;;;24.30;22.90;;;;;;;;;;5014353;28;20441;-86
2021/05/26 12:42:37;;;;;;;24.13;22.30;;;;;;;;;;4997249;28;20458;-83
2021/05/26 12:45:17;;;;;;;24.10;22.70;;;;;;;;;;4996802;28;20427;-84
2021/05/26 12:47:44;;;;;;;24.60;23.20;;;;;;;;;;5014495;28;20543;-81
2021/05/26 12:50:13;;;;;;;24.20;22.60;;;;;;;;;;5014128;28;20407;-85
2021/05/26 12:52:40;;;;;;;23.50;22.20;;;;;;;;;;5014482;28;20452;-86
2021/05/26 12:55:08;;;;;;;24.23;22.73;;;;;;;;;;5014425;28;20480;-83
2021/05/26 12:57:36;;;;;;;24.27;22.87;;;;;;;;;;4997196;28;20496;-85
2021/05/26 13:00:05;;;;;;;23.97;22.60;;;;;;;;;;4996788;28;20419;-86
2021/05/26 13:02:32;;;;;;;23.90;22.50;;;;;;;;;;5017874;28;20465;-84
2021/05/26 13:05:00;;;;;;;24.13;22.70;;;;;;;;;;5017854;28;20930;-83
2021/05/26 13:07:27;;;;;;;24.13;22.63;;;;;;;;;;5017652;28;20445;-82
2021/05/26 13:09:54;;;;;;;24.40;23.07;;;;;;;;;;5018039;28;20418;-83
2021/05/26 13:12:25;;;;;;;25.03;23.53;;;;;;;;;;5017875;28;20468;-83
2021/05/26 13:14:52;;;;;;;26.00;24.40;;;;;;;;;;5018190;28;20447;-86
2021/05/26 13:17:27;;;;;;;25.47;24.03;;;;;;;;;;5017754;28;20466;-87
2021/05/26 13:19:54;;;;;;;24.73;23.10;;;;;;;;;;5018234;28;20423;-87
2021/05/26 13:22:21;;;;;;;24.70;23.20;;;;;;;;;;5017486;28;20422;-86
2021/05/26 13:24:48;;;;;;;26.60;25.03;;;;;;;;;;5017700;28;20461;-86
2021/05/26 13:27:15;;;;;;;24.93;23.63;;;;;;;;;;5017724;28;20414;-86
2021/05/26 13:29:42;;;;;;;26.60;25.10;;;;;;;;;;5017927;28;20498;-86
2021/05/26 13:32:10;;;;;;;24.03;22.50;;;;;;;;;;5000039;28;20817;-86
2021/05/26 13:34:38;;;;;;;23.10;21.80;;;;;;;;;;5017986;28;20426;-86
2021/05/26 13:37:05;;;;;;;22.83;21.53;;;;;;;;;;5017964;28;20469;-85
2021/05/26 13:39:33;;;;;;;22.17;20.90;;;;;;;;;;5017488;28;20906;-84
2021/05/26 13:42:00;;;;;;;21.33;20.13;;;;;;;;;;5017953;28;20527;-85
2021/05/26 13:44:27;;;;;;;20.40;19.30;;;;;;;;;;5000203;28;20419;-85
2021/05/26 13:46:54;;;;;;;21.70;20.57;;;;;;;;;;5017179;28;20469;-85
2021/05/26 13:49:21;;;;;;;21.40;19.80;;;;;;;;;;4996677;28;20451;-84
2021/05/26 13:51:48;;;;;;;20.53;19.43;;;;;;;;;;4997636;28;20442;-85
2021/05/26 13:54:15;;;;;;;21.03;19.73;;;;;;;;;;4996768;28;20905;-85
2021/05/26 13:56:42;;;;;;;21.10;19.93;;;;;;;;;;4997700;28;20505;-85
2021/05/26 13:59:09;;;;;;;21.20;19.90;;;;;;;;;;4997824;28;20416;-85
2021/05/26 14:01:36;;;;;;;22.00;20.70;;;;;;;;;;4997731;28;20895;-88
2021/05/26 14:04:04;;;;;;;22.53;20.93;;;;;;;;;;4980895;28;20427;-87
2021/05/26 14:06:30;;;;;;;22.30;21.00;;;;;;;;;;4997895;28;20420;-93
2021/05/26 14:08:58;;;;;;;21.80;20.60;;;;;;;;;;4997058;28;20768;-84
2021/05/26 14:11:25;;;;;;;19.50;18.50;;;;;;;;;;4996765;28;20492;-84
2021/05/26 14:13:53;;;;;;;19.90;18.80;;;;;;;;;;4997098;28;20415;-84
2021/05/26 14:16:20;;;;;;;21.03;19.93;;;;;;;;;;4997097;28;20492;-84
2021/05/26 14:18:47;;;;;;;19.23;18.23;;;;;;;;;;4997701;28;20793;-88
2021/05/26 14:21:13;;;;;;;21.53;20.20;;;;;;;;;;4997784;28;20416;-86
2021/05/26 14:23:41;;;;;;;20.50;19.40;;;;;;;;;;4998039;28;20409;-85